sensor_id;sensor_type;location;lat;lon;timestamp;temperature;humidity
10660;DHT22;5378;53.206;13.316;2024-02-14T00:00:17;3.90;99.90
10660;DHT22;5378;53.206;13.316;2024-02-14T00:03:06;3.90;99.90
10660;DHT22;5378;53.206;13.316;2024-02-14T00:05:55;3.90;99.90
10660;DHT22;5378;53.206;13.316;2024-02-14T00:08:43;3.90;99.90
10660;DHT22;5378;53.206;13.316;2024-02-14T00:11:29;3.80;99.90
10660;DHT22;5378;53.206;13.316;2024-02-14T00:14:17;3.80;99.90
10660;DHT22;5378;53.206;13.316;2024-02-14T00:17:06;3.70;99.90
10660;DHT22;5378;53.206;13.316;2024-02-14T00:19:53;3.70;99.90
10660;DHT22;5378;53.206;13.316;2024-02-14T00:22:41;3.70;99.90
10660;DHT22;5378;53.206;13.316;2024-02-14T00:25:28;3.70;99.90
10660;DHT22;5378;53.206;13.316;2024-02-14T00:28:16;3.70;99.90
10660;DHT22;5378;53.206;13.316;2024-02-14T00:31:05;3.60;99.90
10660;DHT22;5378;53.206;13.316;2024-02-14T00:34:12;3.50;99.90
10660;DHT22;5378;53.206;13.316;2024-02-14T00:36:59;3.50;99.90
10660;DHT22;5378;53.206;13.316;2024-02-14T00:39:47;3.40;99.90
10660;DHT22;5378;53.206;13.316;2024-02-14T00:42:36;3.50;99.90
10660;DHT22;5378;53.206;13.316;2024-02-14T00:45:23;3.50;99.90
10660;DHT22;5378;53.206;13.316;2024-02-14T00:48:10;3.50;99.90
10660;DHT22;5378;53.206;13.316;2024-02-14T00:50:57;3.50;99.90
10660;DHT22;5378;53.206;13.316;2024-02-14T00:53:45;3.50;99.90
10660;DHT22;5378;53.206;13.316;2024-02-14T00:56:33;3.50;99.90
10660;DHT22;5378;53.206;13.316;2024-02-14T00:59:20;3.50;99.90
10660;DHT22;5378;53.206;13.316;2024-02-14T01:02:07;3.40;99.90
10660;DHT22;5378;53.206;13.316;2024-02-14T01:04:55;3.40;99.90
10660;DHT22;5378;53.206;13.316;2024-02-14T01:07:42;3.30;99.90
10660;DHT22;5378;53.206;13.316;2024-02-14T01:10:29;3.30;99.90
10660;DHT22;5378;53.206;13.316;2024-02-14T01:13:17;3.20;99.90
10660;DHT22;5378;53.206;13.316;2024-02-14T01:16:05;3.30;99.90
10660;DHT22;5378;53.206;13.316;2024-02-14T01:18:52;3.20;99.90
10660;DHT22;5378;53.206;13.316;2024-02-14T01:21:39;3.20;99.90
10660;DHT22;5378;53.206;13.316;2024-02-14T01:24:25;3.30;99.90
10660;DHT22;5378;53.206;13.316;2024-02-14T01:27:13;3.20;99.90
10660;DHT22;5378;53.206;13.316;2024-02-14T01:30:04;3.30;99.90
10660;DHT22;5378;53.206;13.316;2024-02-14T01:32:52;3.20;99.90
10660;DHT22;5378;53.206;13.316;2024-02-14T01:35:39;3.20;99.90
10660;DHT22;5378;53.206;13.316;2024-02-14T01:38:29;3.20;99.90
10660;DHT22;5378;53.206;13.316;2024-02-14T01:41:21;3.10;99.90
10660;DHT22;5378;53.206;13.316;2024-02-14T01:44:08;3.00;99.90
10660;DHT22;5378;53.206;13.316;2024-02-14T01:46:57;3.00;99.90
10660;DHT22;5378;53.206;13.316;2024-02-14T01:49:45;3.00;99.90
10660;DHT22;5378;53.206;13.316;2024-02-14T01:52:33;2.90;99.90
10660;DHT22;5378;53.206;13.316;2024-02-14T01:55:21;2.90;99.90
10660;DHT22;5378;53.206;13.316;2024-02-14T01:58:09;2.90;99.90
10660;DHT22;5378;53.206;13.316;2024-02-14T02:00:56;2.90;99.90
10660;DHT22;5378;53.206;13.316;2024-02-14T02:03:45;2.90;99.90
10660;DHT22;5378;53.206;13.316;2024-02-14T02:06:32;2.90;99.90
10660;DHT22;5378;53.206;13.316;2024-02-14T02:09:20;2.90;99.90
10660;DHT22;5378;53.206;13.316;2024-02-14T02:12:07;2.80;99.90
10660;DHT22;5378;53.206;13.316;2024-02-14T02:15:14;2.90;99.90
10660;DHT22;5378;53.206;13.316;2024-02-14T02:18:21;2.90;99.90
10660;DHT22;5378;53.206;13.316;2024-02-14T02:21:29;2.80;99.90
10660;DHT22;5378;53.206;13.316;2024-02-14T02:24:18;2.80;99.90
10660;DHT22;5378;53.206;13.316;2024-02-14T02:27:05;2.80;99.90
10660;DHT22;5378;53.206;13.316;2024-02-14T02:30:12;2.80;99.90
10660;DHT22;5378;53.206;13.316;2024-02-14T02:33:00;2.90;99.90
10660;DHT22;5378;53.206;13.316;2024-02-14T02:35:49;2.90;99.90
10660;DHT22;5378;53.206;13.316;2024-02-14T02:38:56;2.90;99.90
10660;DHT22;5378;53.206;13.316;2024-02-14T02:42:05;3.00;99.90
10660;DHT22;5378;53.206;13.316;2024-02-14T02:45:15;3.00;99.90
10660;DHT22;5378;53.206;13.316;2024-02-14T02:48:22;3.00;99.90
10660;DHT22;5378;53.206;13.316;2024-02-14T02:51:16;3.10;99.90
10660;DHT22;5378;53.206;13.316;2024-02-14T02:54:26;3.10;99.90
10660;DHT22;5378;53.206;13.316;2024-02-14T02:57:35;3.00;99.90
10660;DHT22;5378;53.206;13.316;2024-02-14T03:00:23;3.00;99.90
10660;DHT22;5378;53.206;13.316;2024-02-14T03:03:23;3.00;99.90
10660;DHT22;5378;53.206;13.316;2024-02-14T03:06:25;3.00;99.90
10660;DHT22;5378;53.206;13.316;2024-02-14T03:09:27;3.00;99.90
10660;DHT22;5378;53.206;13.316;2024-02-14T03:12:36;3.00;99.90
10660;DHT22;5378;53.206;13.316;2024-02-14T03:15:44;3.00;99.90
10660;DHT22;5378;53.206;13.316;2024-02-14T03:18:32;2.90;99.90
10660;DHT22;5378;53.206;13.316;2024-02-14T03:21:19;3.00;99.90
10660;DHT22;5378;53.206;13.316;2024-02-14T03:24:06;2.90;99.90
10660;DHT22;5378;53.206;13.316;2024-02-14T03:26:55;3.00;99.90
10660;DHT22;5378;53.206;13.316;2024-02-14T03:29:44;3.10;99.90
10660;DHT22;5378;53.206;13.316;2024-02-14T03:32:33;3.20;99.90
10660;DHT22;5378;53.206;13.316;2024-02-14T03:35:20;3.10;99.90
10660;DHT22;5378;53.206;13.316;2024-02-14T03:38:08;3.10;99.90
10660;DHT22;5378;53.206;13.316;2024-02-14T03:40:56;3.10;99.90
10660;DHT22;5378;53.206;13.316;2024-02-14T03:43:43;3.10;99.90
10660;DHT22;5378;53.206;13.316;2024-02-14T03:46:32;3.20;99.90
10660;DHT22;5378;53.206;13.316;2024-02-14T03:49:21;3.30;99.90
10660;DHT22;5378;53.206;13.316;2024-02-14T03:52:08;3.40;99.90
10660;DHT22;5378;53.206;13.316;2024-02-14T03:54:55;3.50;99.90
10660;DHT22;5378;53.206;13.316;2024-02-14T03:57:42;3.50;99.90
10660;DHT22;5378;53.206;13.316;2024-02-14T04:00:31;3.60;99.90
10660;DHT22;5378;53.206;13.316;2024-02-14T04:03:19;3.60;99.90
10660;DHT22;5378;53.206;13.316;2024-02-14T04:06:06;3.70;99.90
10660;DHT22;5378;53.206;13.316;2024-02-14T04:08:54;3.70;99.90
10660;DHT22;5378;53.206;13.316;2024-02-14T04:11:41;3.60;99.90
10660;DHT22;5378;53.206;13.316;2024-02-14T04:14:28;3.60;99.90
10660;DHT22;5378;53.206;13.316;2024-02-14T04:17:15;3.70;99.90
10660;DHT22;5378;53.206;13.316;2024-02-14T04:20:04;3.70;99.90
10660;DHT22;5378;53.206;13.316;2024-02-14T04:22:51;3.80;99.90
10660;DHT22;5378;53.206;13.316;2024-02-14T04:25:38;3.80;99.90
10660;DHT22;5378;53.206;13.316;2024-02-14T04:28:26;3.90;99.90
10660;DHT22;5378;53.206;13.316;2024-02-14T04:31:13;3.90;99.90
10660;DHT22;5378;53.206;13.316;2024-02-14T04:34:09;3.90;99.90
10660;DHT22;5378;53.206;13.316;2024-02-14T04:36:58;3.90;99.90
10660;DHT22;5378;53.206;13.316;2024-02-14T04:39:45;3.90;99.90
10660;DHT22;5378;53.206;13.316;2024-02-14T04:42:33;4.10;99.90
10660;DHT22;5378;53.206;13.316;2024-02-14T04:45:20;4.00;99.90
10660;DHT22;5378;53.206;13.316;2024-02-14T04:48:16;4.00;99.90
10660;DHT22;5378;53.206;13.316;2024-02-14T04:51:04;4.00;99.90
10660;DHT22;5378;53.206;13.316;2024-02-14T04:53:52;3.90;99.90
10660;DHT22;5378;53.206;13.316;2024-02-14T04:56:40;3.90;99.90
10660;DHT22;5378;53.206;13.316;2024-02-14T04:59:27;4.00;99.90
10660;DHT22;5378;53.206;13.316;2024-02-14T05:02:14;4.00;99.90
10660;DHT22;5378;53.206;13.316;2024-02-14T05:05:01;4.10;99.90
10660;DHT22;5378;53.206;13.316;2024-02-14T05:07:50;4.10;99.90
10660;DHT22;5378;53.206;13.316;2024-02-14T05:10:39;4.30;99.90
10660;DHT22;5378;53.206;13.316;2024-02-14T05:13:26;4.30;99.90
10660;DHT22;5378;53.206;13.316;2024-02-14T05:16:13;4.30;99.90
10660;DHT22;5378;53.206;13.316;2024-02-14T05:19:00;4.30;99.90
10660;DHT22;5378;53.206;13.316;2024-02-14T05:21:48;4.30;99.90
10660;DHT22;5378;53.206;13.316;2024-02-14T05:24:35;4.30;99.90
10660;DHT22;5378;53.206;13.316;2024-02-14T05:27:24;4.40;99.90
10660;DHT22;5378;53.206;13.316;2024-02-14T05:30:12;4.40;99.90
10660;DHT22;5378;53.206;13.316;2024-02-14T05:33:07;4.40;99.90
10660;DHT22;5378;53.206;13.316;2024-02-14T05:35:54;4.40;99.90
10660;DHT22;5378;53.206;13.316;2024-02-14T05:38:41;4.40;99.90
10660;DHT22;5378;53.206;13.316;2024-02-14T05:41:29;4.40;99.90
10660;DHT22;5378;53.206;13.316;2024-02-14T05:44:20;4.40;99.90
10660;DHT22;5378;53.206;13.316;2024-02-14T05:47:08;4.40;99.90
10660;DHT22;5378;53.206;13.316;2024-02-14T05:49:57;4.30;99.90
10660;DHT22;5378;53.206;13.316;2024-02-14T05:52:44;4.30;99.90
10660;DHT22;5378;53.206;13.316;2024-02-14T05:55:31;4.40;99.90
10660;DHT22;5378;53.206;13.316;2024-02-14T05:58:20;4.30;99.90
10660;DHT22;5378;53.206;13.316;2024-02-14T06:01:09;4.20;99.90
10660;DHT22;5378;53.206;13.316;2024-02-14T06:03:56;4.20;99.90
10660;DHT22;5378;53.206;13.316;2024-02-14T06:06:43;4.10;99.90
10660;DHT22;5378;53.206;13.316;2024-02-14T06:09:30;4.10;99.90
10660;DHT22;5378;53.206;13.316;2024-02-14T06:12:17;4.20;99.90
10660;DHT22;5378;53.206;13.316;2024-02-14T06:15:05;4.30;99.90
10660;DHT22;5378;53.206;13.316;2024-02-14T06:17:55;4.30;99.90
10660;DHT22;5378;53.206;13.316;2024-02-14T06:20:43;4.30;99.90
10660;DHT22;5378;53.206;13.316;2024-02-14T06:23:32;4.30;99.90
10660;DHT22;5378;53.206;13.316;2024-02-14T06:26:19;4.30;99.90
10660;DHT22;5378;53.206;13.316;2024-02-14T06:29:06;4.40;99.90
10660;DHT22;5378;53.206;13.316;2024-02-14T06:31:53;4.30;99.90
10660;DHT22;5378;53.206;13.316;2024-02-14T06:34:41;4.50;99.90
10660;DHT22;5378;53.206;13.316;2024-02-14T06:37:28;4.60;99.90
10660;DHT22;5378;53.206;13.316;2024-02-14T06:40:17;4.60;99.90
10660;DHT22;5378;53.206;13.316;2024-02-14T06:43:04;4.50;99.90
10660;DHT22;5378;53.206;13.316;2024-02-14T06:45:52;4.50;99.90
10660;DHT22;5378;53.206;13.316;2024-02-14T06:48:43;4.60;99.90
10660;DHT22;5378;53.206;13.316;2024-02-14T06:51:32;4.60;99.90
10660;DHT22;5378;53.206;13.316;2024-02-14T06:54:19;4.60;99.90
10660;DHT22;5378;53.206;13.316;2024-02-14T06:57:06;4.40;99.90
10660;DHT22;5378;53.206;13.316;2024-02-14T06:59:53;4.50;99.90
10660;DHT22;5378;53.206;13.316;2024-02-14T07:02:41;4.60;99.90
10660;DHT22;5378;53.206;13.316;2024-02-14T07:05:29;4.60;99.90
10660;DHT22;5378;53.206;13.316;2024-02-14T07:08:17;4.60;99.90
10660;DHT22;5378;53.206;13.316;2024-02-14T07:11:04;4.80;99.90
10660;DHT22;5378;53.206;13.316;2024-02-14T07:13:52;4.80;99.90
10660;DHT22;5378;53.206;13.316;2024-02-14T07:16:39;4.80;99.90
10660;DHT22;5378;53.206;13.316;2024-02-14T07:19:27;4.80;99.90
10660;DHT22;5378;53.206;13.316;2024-02-14T07:22:14;4.80;99.90
10660;DHT22;5378;53.206;13.316;2024-02-14T07:25:03;4.90;99.90
10660;DHT22;5378;53.206;13.316;2024-02-14T07:27:51;5.00;99.90
10660;DHT22;5378;53.206;13.316;2024-02-14T07:30:38;5.00;99.90
10660;DHT22;5378;53.206;13.316;2024-02-14T07:33:25;5.00;99.90
10660;DHT22;5378;53.206;13.316;2024-02-14T07:36:12;4.80;99.90
10660;DHT22;5378;53.206;13.316;2024-02-14T07:38:59;4.80;99.90
10660;DHT22;5378;53.206;13.316;2024-02-14T07:41:47;4.80;99.90
10660;DHT22;5378;53.206;13.316;2024-02-14T07:44:34;4.80;99.90
10660;DHT22;5378;53.206;13.316;2024-02-14T07:47:22;4.80;99.90
10660;DHT22;5378;53.206;13.316;2024-02-14T07:50:09;4.80;99.90
10660;DHT22;5378;53.206;13.316;2024-02-14T07:52:57;4.80;99.90
10660;DHT22;5378;53.206;13.316;2024-02-14T07:55:44;4.80;99.90
10660;DHT22;5378;53.206;13.316;2024-02-14T07:58:33;4.80;99.90
10660;DHT22;5378;53.206;13.316;2024-02-14T08:01:20;4.80;99.90
10660;DHT22;5378;53.206;13.316;2024-02-14T08:04:07;4.70;99.90
10660;DHT22;5378;53.206;13.316;2024-02-14T08:06:54;4.70;99.90
10660;DHT22;5378;53.206;13.316;2024-02-14T08:09:41;4.70;99.90
10660;DHT22;5378;53.206;13.316;2024-02-14T08:12:28;4.70;99.90
10660;DHT22;5378;53.206;13.316;2024-02-14T08:15:17;4.80;99.90
10660;DHT22;5378;53.206;13.316;2024-02-14T08:18:06;4.80;99.90
10660;DHT22;5378;53.206;13.316;2024-02-14T08:20:54;4.80;99.90
10660;DHT22;5378;53.206;13.316;2024-02-14T08:23:42;4.80;99.90
10660;DHT22;5378;53.206;13.316;2024-02-14T08:26:29;4.90;99.90
10660;DHT22;5378;53.206;13.316;2024-02-14T08:29:17;4.90;99.90
10660;DHT22;5378;53.206;13.316;2024-02-14T08:32:06;4.90;99.90
10660;DHT22;5378;53.206;13.316;2024-02-14T08:34:53;4.90;99.90
10660;DHT22;5378;53.206;13.316;2024-02-14T08:37:41;4.70;99.90
10660;DHT22;5378;53.206;13.316;2024-02-14T08:40:28;4.80;99.90
10660;DHT22;5378;53.206;13.316;2024-02-14T08:43:15;4.90;99.90
10660;DHT22;5378;53.206;13.316;2024-02-14T08:46:02;4.90;99.90
10660;DHT22;5378;53.206;13.316;2024-02-14T08:48:50;5.00;99.90
10660;DHT22;5378;53.206;13.316;2024-02-14T08:51:38;5.10;99.90
10660;DHT22;5378;53.206;13.316;2024-02-14T08:54:25;5.10;99.90
10660;DHT22;5378;53.206;13.316;2024-02-14T08:57:14;5.20;99.90
10660;DHT22;5378;53.206;13.316;2024-02-14T09:00:01;5.30;99.90
10660;DHT22;5378;53.206;13.316;2024-02-14T09:02:50;5.40;99.90
10660;DHT22;5378;53.206;13.316;2024-02-14T09:05:38;5.40;99.90
10660;DHT22;5378;53.206;13.316;2024-02-14T09:08:25;5.50;99.90
10660;DHT22;5378;53.206;13.316;2024-02-14T09:11:13;5.60;99.90
10660;DHT22;5378;53.206;13.316;2024-02-14T09:13:59;5.80;99.90
10660;DHT22;5378;53.206;13.316;2024-02-14T09:16:52;5.90;99.90
10660;DHT22;5378;53.206;13.316;2024-02-14T09:19:39;5.90;99.90
10660;DHT22;5378;53.206;13.316;2024-02-14T09:22:27;6.00;99.90
10660;DHT22;5378;53.206;13.316;2024-02-14T09:25:15;6.00;99.90
10660;DHT22;5378;53.206;13.316;2024-02-14T09:28:02;6.20;99.90
10660;DHT22;5378;53.206;13.316;2024-02-14T09:30:49;6.20;99.90
10660;DHT22;5378;53.206;13.316;2024-02-14T09:33:36;6.30;99.90
10660;DHT22;5378;53.206;13.316;2024-02-14T09:36:24;6.30;99.90
10660;DHT22;5378;53.206;13.316;2024-02-14T09:39:12;6.30;99.90
10660;DHT22;5378;53.206;13.316;2024-02-14T09:42:08;6.40;99.90
10660;DHT22;5378;53.206;13.316;2024-02-14T09:44:57;6.50;99.90
10660;DHT22;5378;53.206;13.316;2024-02-14T09:47:45;6.90;99.90
10660;DHT22;5378;53.206;13.316;2024-02-14T09:50:34;7.10;99.90
10660;DHT22;5378;53.206;13.316;2024-02-14T09:53:23;7.30;99.90
10660;DHT22;5378;53.206;13.316;2024-02-14T09:56:11;7.50;99.90
10660;DHT22;5378;53.206;13.316;2024-02-14T09:59:02;7.60;99.90
10660;DHT22;5378;53.206;13.316;2024-02-14T10:01:49;7.60;99.90
10660;DHT22;5378;53.206;13.316;2024-02-14T10:04:38;7.50;99.90
10660;DHT22;5378;53.206;13.316;2024-02-14T10:07:25;7.50;99.90
10660;DHT22;5378;53.206;13.316;2024-02-14T10:10:12;7.50;99.90
10660;DHT22;5378;53.206;13.316;2024-02-14T10:13:03;7.60;99.90
10660;DHT22;5378;53.206;13.316;2024-02-14T10:15:51;7.60;99.90
10660;DHT22;5378;53.206;13.316;2024-02-14T10:18:38;7.80;99.90
10660;DHT22;5378;53.206;13.316;2024-02-14T10:21:26;7.90;99.90
10660;DHT22;5378;53.206;13.316;2024-02-14T10:24:14;7.90;99.90
10660;DHT22;5378;53.206;13.316;2024-02-14T10:27:01;7.80;99.90
10660;DHT22;5378;53.206;13.316;2024-02-14T10:29:50;7.90;99.90
10660;DHT22;5378;53.206;13.316;2024-02-14T10:32:37;8.00;99.90
10660;DHT22;5378;53.206;13.316;2024-02-14T10:35:24;8.10;99.90
10660;DHT22;5378;53.206;13.316;2024-02-14T10:38:11;8.10;99.90
10660;DHT22;5378;53.206;13.316;2024-02-14T10:40:59;8.10;99.90
10660;DHT22;5378;53.206;13.316;2024-02-14T10:43:47;7.90;99.90
10660;DHT22;5378;53.206;13.316;2024-02-14T10:46:37;7.90;99.90
10660;DHT22;5378;53.206;13.316;2024-02-14T10:49:26;7.90;99.90
10660;DHT22;5378;53.206;13.316;2024-02-14T10:52:16;8.00;99.90
10660;DHT22;5378;53.206;13.316;2024-02-14T10:55:06;7.90;99.90
10660;DHT22;5378;53.206;13.316;2024-02-14T10:57:53;7.80;99.90
10660;DHT22;5378;53.206;13.316;2024-02-14T11:00:42;7.90;99.90
10660;DHT22;5378;53.206;13.316;2024-02-14T11:03:31;8.00;99.90
10660;DHT22;5378;53.206;13.316;2024-02-14T11:06:18;8.00;99.90
10660;DHT22;5378;53.206;13.316;2024-02-14T11:09:05;8.10;99.90
10660;DHT22;5378;53.206;13.316;2024-02-14T11:12:00;8.10;99.90
10660;DHT22;5378;53.206;13.316;2024-02-14T11:14:47;8.10;99.90
10660;DHT22;5378;53.206;13.316;2024-02-14T11:17:39;8.00;99.90
10660;DHT22;5378;53.206;13.316;2024-02-14T11:20:34;7.90;99.90
10660;DHT22;5378;53.206;13.316;2024-02-14T11:23:22;7.80;99.90
10660;DHT22;5378;53.206;13.316;2024-02-14T11:26:15;7.90;99.90
10660;DHT22;5378;53.206;13.316;2024-02-14T11:29:04;7.80;99.90
10660;DHT22;5378;53.206;13.316;2024-02-14T11:31:57;7.80;99.90
10660;DHT22;5378;53.206;13.316;2024-02-14T11:34:53;7.80;99.90
10660;DHT22;5378;53.206;13.316;2024-02-14T11:37:41;7.90;99.90
10660;DHT22;5378;53.206;13.316;2024-02-14T11:40:29;7.90;99.90
10660;DHT22;5378;53.206;13.316;2024-02-14T11:43:18;8.00;99.90
10660;DHT22;5378;53.206;13.316;2024-02-14T11:46:06;8.00;99.90
10660;DHT22;5378;53.206;13.316;2024-02-14T11:48:53;8.00;99.90
10660;DHT22;5378;53.206;13.316;2024-02-14T11:51:40;8.10;99.90
10660;DHT22;5378;53.206;13.316;2024-02-14T11:54:29;8.10;99.90
10660;DHT22;5378;53.206;13.316;2024-02-14T11:57:17;8.10;99.90
10660;DHT22;5378;53.206;13.316;2024-02-14T12:00:06;8.10;99.90
10660;DHT22;5378;53.206;13.316;2024-02-14T12:03:10;8.20;99.90
10660;DHT22;5378;53.206;13.316;2024-02-14T12:05:58;8.30;99.90
10660;DHT22;5378;53.206;13.316;2024-02-14T12:08:45;8.30;99.90
10660;DHT22;5378;53.206;13.316;2024-02-14T12:11:35;8.30;99.90
10660;DHT22;5378;53.206;13.316;2024-02-14T12:14:23;8.30;99.90
10660;DHT22;5378;53.206;13.316;2024-02-14T12:17:11;8.30;99.90
10660;DHT22;5378;53.206;13.316;2024-02-14T12:20:07;8.20;99.90
10660;DHT22;5378;53.206;13.316;2024-02-14T12:22:55;8.20;99.90
10660;DHT22;5378;53.206;13.316;2024-02-14T12:25:43;8.20;99.90
10660;DHT22;5378;53.206;13.316;2024-02-14T12:28:33;8.20;99.90
10660;DHT22;5378;53.206;13.316;2024-02-14T12:31:22;8.30;99.90
10660;DHT22;5378;53.206;13.316;2024-02-14T12:34:11;8.30;99.90
10660;DHT22;5378;53.206;13.316;2024-02-14T12:36:58;8.40;99.90
10660;DHT22;5378;53.206;13.316;2024-02-14T12:39:46;8.30;99.90
10660;DHT22;5378;53.206;13.316;2024-02-14T12:42:32;8.30;99.90
10660;DHT22;5378;53.206;13.316;2024-02-14T12:45:21;8.30;99.90
10660;DHT22;5378;53.206;13.316;2024-02-14T12:48:10;8.40;99.90
10660;DHT22;5378;53.206;13.316;2024-02-14T12:50:59;8.50;99.90
10660;DHT22;5378;53.206;13.316;2024-02-14T12:53:46;8.50;99.90
10660;DHT22;5378;53.206;13.316;2024-02-14T12:56:33;8.50;99.90
10660;DHT22;5378;53.206;13.316;2024-02-14T12:59:20;8.50;99.90
10660;DHT22;5378;53.206;13.316;2024-02-14T13:02:10;8.50;99.90
10660;DHT22;5378;53.206;13.316;2024-02-14T13:04:57;8.50;99.90
10660;DHT22;5378;53.206;13.316;2024-02-14T13:07:44;8.60;99.90
10660;DHT22;5378;53.206;13.316;2024-02-14T13:10:31;8.60;99.90
10660;DHT22;5378;53.206;13.316;2024-02-14T13:13:19;8.60;99.90
10660;DHT22;5378;53.206;13.316;2024-02-14T13:16:06;8.60;99.90
10660;DHT22;5378;53.206;13.316;2024-02-14T13:18:55;8.60;99.90
10660;DHT22;5378;53.206;13.316;2024-02-14T13:21:42;8.70;99.90
10660;DHT22;5378;53.206;13.316;2024-02-14T13:24:31;8.70;99.90
10660;DHT22;5378;53.206;13.316;2024-02-14T13:27:18;8.80;99.90
10660;DHT22;5378;53.206;13.316;2024-02-14T13:30:08;8.80;99.90
10660;DHT22;5378;53.206;13.316;2024-02-14T13:32:55;8.80;99.90
10660;DHT22;5378;53.206;13.316;2024-02-14T13:35:44;8.80;99.90
10660;DHT22;5378;53.206;13.316;2024-02-14T13:38:31;8.80;99.90
10660;DHT22;5378;53.206;13.316;2024-02-14T13:41:18;8.70;99.90
10660;DHT22;5378;53.206;13.316;2024-02-14T13:44:06;8.70;99.90
10660;DHT22;5378;53.206;13.316;2024-02-14T13:46:54;8.70;99.90
10660;DHT22;5378;53.206;13.316;2024-02-14T13:49:41;8.80;99.90
10660;DHT22;5378;53.206;13.316;2024-02-14T13:52:30;8.80;99.90
10660;DHT22;5378;53.206;13.316;2024-02-14T13:55:18;8.80;99.90
10660;DHT22;5378;53.206;13.316;2024-02-14T13:58:05;8.80;99.90
10660;DHT22;5378;53.206;13.316;2024-02-14T14:00:52;8.90;99.90
10660;DHT22;5378;53.206;13.316;2024-02-14T14:03:39;8.90;99.90
10660;DHT22;5378;53.206;13.316;2024-02-14T14:06:27;8.90;99.90
10660;DHT22;5378;53.206;13.316;2024-02-14T14:09:15;8.90;99.90
10660;DHT22;5378;53.206;13.316;2024-02-14T14:12:03;8.90;99.90
10660;DHT22;5378;53.206;13.316;2024-02-14T14:14:50;8.90;99.90
10660;DHT22;5378;53.206;13.316;2024-02-14T14:17:37;9.00;99.90
10660;DHT22;5378;53.206;13.316;2024-02-14T14:20:24;9.00;99.90
10660;DHT22;5378;53.206;13.316;2024-02-14T14:23:11;9.00;99.90
10660;DHT22;5378;53.206;13.316;2024-02-14T14:26:01;9.00;99.90
10660;DHT22;5378;53.206;13.316;2024-02-14T14:28:48;9.10;99.90
10660;DHT22;5378;53.206;13.316;2024-02-14T14:31:36;9.10;99.90
10660;DHT22;5378;53.206;13.316;2024-02-14T14:34:23;9.20;99.90
10660;DHT22;5378;53.206;13.316;2024-02-14T14:37:10;9.20;99.90
10660;DHT22;5378;53.206;13.316;2024-02-14T14:39:57;9.30;99.90
10660;DHT22;5378;53.206;13.316;2024-02-14T14:42:48;9.30;99.90
10660;DHT22;5378;53.206;13.316;2024-02-14T14:45:35;9.30;99.90
10660;DHT22;5378;53.206;13.316;2024-02-14T14:48:26;9.30;99.90
10660;DHT22;5378;53.206;13.316;2024-02-14T14:51:13;9.40;99.90
10660;DHT22;5378;53.206;13.316;2024-02-14T14:54:00;9.40;99.90
10660;DHT22;5378;53.206;13.316;2024-02-14T14:56:47;9.40;99.90
10660;DHT22;5378;53.206;13.316;2024-02-14T14:59:40;9.40;99.90
10660;DHT22;5378;53.206;13.316;2024-02-14T15:02:29;9.40;99.90
10660;DHT22;5378;53.206;13.316;2024-02-14T15:05:16;9.40;99.90
10660;DHT22;5378;53.206;13.316;2024-02-14T15:08:05;9.50;99.90
10660;DHT22;5378;53.206;13.316;2024-02-14T15:10:53;9.60;99.90
10660;DHT22;5378;53.206;13.316;2024-02-14T15:13:41;9.50;99.90
10660;DHT22;5378;53.206;13.316;2024-02-14T15:16:29;9.50;99.90
10660;DHT22;5378;53.206;13.316;2024-02-14T15:19:17;9.50;99.90
10660;DHT22;5378;53.206;13.316;2024-02-14T15:22:04;9.50;99.90
10660;DHT22;5378;53.206;13.316;2024-02-14T15:24:51;9.50;99.90
10660;DHT22;5378;53.206;13.316;2024-02-14T15:27:39;9.50;99.90
10660;DHT22;5378;53.206;13.316;2024-02-14T15:30:30;9.50;99.90
10660;DHT22;5378;53.206;13.316;2024-02-14T15:33:36;9.50;99.90
10660;DHT22;5378;53.206;13.316;2024-02-14T15:36:23;9.40;99.90
10660;DHT22;5378;53.206;13.316;2024-02-14T15:39:10;9.40;99.90
10660;DHT22;5378;53.206;13.316;2024-02-14T15:41:58;9.50;99.90
10660;DHT22;5378;53.206;13.316;2024-02-14T15:44:45;9.50;99.90
10660;DHT22;5378;53.206;13.316;2024-02-14T15:47:32;9.50;99.90
10660;DHT22;5378;53.206;13.316;2024-02-14T15:50:20;9.50;99.90
10660;DHT22;5378;53.206;13.316;2024-02-14T15:53:09;9.50;99.90
10660;DHT22;5378;53.206;13.316;2024-02-14T15:55:57;9.50;99.90
10660;DHT22;5378;53.206;13.316;2024-02-14T15:58:44;9.50;99.90
10660;DHT22;5378;53.206;13.316;2024-02-14T16:01:31;9.60;99.90
10660;DHT22;5378;53.206;13.316;2024-02-14T16:04:18;9.50;99.90
10660;DHT22;5378;53.206;13.316;2024-02-14T16:07:07;9.50;99.90
10660;DHT22;5378;53.206;13.316;2024-02-14T16:09:54;9.60;99.90
10660;DHT22;5378;53.206;13.316;2024-02-14T16:12:42;9.60;99.90
10660;DHT22;5378;53.206;13.316;2024-02-14T16:15:30;9.60;99.90
10660;DHT22;5378;53.206;13.316;2024-02-14T16:18:17;9.60;99.90
10660;DHT22;5378;53.206;13.316;2024-02-14T16:21:05;9.60;99.90
10660;DHT22;5378;53.206;13.316;2024-02-14T16:23:53;9.60;99.90
10660;DHT22;5378;53.206;13.316;2024-02-14T16:26:41;9.70;99.90
10660;DHT22;5378;53.206;13.316;2024-02-14T16:29:28;9.60;99.90
10660;DHT22;5378;53.206;13.316;2024-02-14T16:32:17;9.70;99.90
10660;DHT22;5378;53.206;13.316;2024-02-14T16:35:04;9.70;99.90
10660;DHT22;5378;53.206;13.316;2024-02-14T16:37:51;9.70;99.90
10660;DHT22;5378;53.206;13.316;2024-02-14T16:40:39;9.70;99.90
10660;DHT22;5378;53.206;13.316;2024-02-14T16:43:27;9.70;99.90
10660;DHT22;5378;53.206;13.316;2024-02-14T16:46:14;9.70;99.90
10660;DHT22;5378;53.206;13.316;2024-02-14T16:49:01;9.80;99.90
10660;DHT22;5378;53.206;13.316;2024-02-14T16:51:49;9.80;99.90
10660;DHT22;5378;53.206;13.316;2024-02-14T16:54:36;9.80;99.90
10660;DHT22;5378;53.206;13.316;2024-02-14T16:57:24;9.80;99.90
10660;DHT22;5378;53.206;13.316;2024-02-14T17:00:12;9.80;99.90
10660;DHT22;5378;53.206;13.316;2024-02-14T17:02:59;9.90;99.90
10660;DHT22;5378;53.206;13.316;2024-02-14T17:05:48;9.90;99.90
10660;DHT22;5378;53.206;13.316;2024-02-14T17:08:35;9.90;99.90
10660;DHT22;5378;53.206;13.316;2024-02-14T17:11:23;9.90;99.90
10660;DHT22;5378;53.206;13.316;2024-02-14T17:14:12;9.90;99.90
10660;DHT22;5378;53.206;13.316;2024-02-14T17:17:00;9.90;99.90
10660;DHT22;5378;53.206;13.316;2024-02-14T17:19:48;9.90;99.90
10660;DHT22;5378;53.206;13.316;2024-02-14T17:22:35;9.90;99.90
10660;DHT22;5378;53.206;13.316;2024-02-14T17:25:22;10.00;99.90
10660;DHT22;5378;53.206;13.316;2024-02-14T17:28:10;10.00;99.90
10660;DHT22;5378;53.206;13.316;2024-02-14T17:30:59;10.00;99.90
10660;DHT22;5378;53.206;13.316;2024-02-14T17:33:46;10.00;99.90
10660;DHT22;5378;53.206;13.316;2024-02-14T17:36:34;10.00;99.90
10660;DHT22;5378;53.206;13.316;2024-02-14T17:39:21;10.00;99.90
10660;DHT22;5378;53.206;13.316;2024-02-14T17:42:09;10.00;99.90
10660;DHT22;5378;53.206;13.316;2024-02-14T17:44:56;10.10;99.90
10660;DHT22;5378;53.206;13.316;2024-02-14T17:47:45;10.10;99.90
10660;DHT22;5378;53.206;13.316;2024-02-14T17:50:32;10.10;99.90
10660;DHT22;5378;53.206;13.316;2024-02-14T17:53:19;10.10;99.90
10660;DHT22;5378;53.206;13.316;2024-02-14T17:56:07;10.10;99.90
10660;DHT22;5378;53.206;13.316;2024-02-14T17:58:54;10.10;99.90
10660;DHT22;5378;53.206;13.316;2024-02-14T18:01:41;10.20;99.90